Marshall Army Air Field
KFRI : now visible

Airfield :











YOU CAN JOIN US ON...

 
LOGIN :

Register | Disclaimer

   EN    FR    IT 

 









Legend :    VFR   Marginal VFR   IFR   Intensive IFR   Very Intensive IFR
Visi :
Ceiling :
>= 8 km
>= 3000ft
5 to 8 km
1000 to 3000 ft
1500m to 5 km
500 to 1000 ft
800 to 1500m
200 to 500 ft
< 800m
< 200 ft
Symbols :   Thunderstorms  Fog  Heavy snow  Heavy precipitations  Wind > 20 kt






- Airport Elevation : 1065 ft


KFRI - Marshall Army Air Field

CURRENT METAR :
  • 071555Z AUTO 36009KT 10SM FEW049 OVC080 09/02 A3053 RMK AO2 DZB35E37RAB37E49 SLP338 P0000 T00940023 FZRANO $

EXPIRED METARs :
  • 071535Z AUTO 01008KT 10SM -DZ OVC080 10/01 A3051 RMK AO2 DZB35 SLP331 FZRANO $
  • 071455Z AUTO 02012KT 10SM BKN085 BKN140 11/01 A3051 RMK AO2 SLP330 T01050008 51015 FZRANO $
  • 071355Z AUTO 01008KT 10SM BKN090 09/01 A3051 RMK AO2 SLP330 T00940011 FZRANO $

TAF TAF KFRI
Valid from the 07 at 12:00 until the 08 at 18:00 UTC


0712/0818 03010KT 9999 FEW095 QNH3035INS
BECMG 0712/0713 04010G20KT 9999 BKN060 QNH3047INS
BECMG 0715/0716 04012KT 8000 -SHRA OVC030 QNH3043INS
BECMG 0723/0724 35006KT 9999 NSW BKN060 QNH3048INS
BECMG 0804/0805 15008KT 9999 BKN060 QNH3047INS
BECMG 0811/0812 23010KT 9999 BKN060 QNH3028INS TX12/0721Z TN08/0712Z
KZKC FIR / North America



MET'MAP, your aeronautical weather chart ! - Copyright ORBIFLY December 2007 - Disclaimer

ORBIFLY MET'MAP TEAM :

Programming & Development : Alexandra Zaïnal
Original concept : Baudouin d'Aumeries
Technical & hardware support : Manuel Goepfert
Assistance : Marc-Olivier Méhu




SOURCES & CREDITS :

   NOAA       Earth
Advisory